EDT,Max TemperatureF,Mean TemperatureF,Min TemperatureF,Max Dew PointF,MeanDew PointF,Min DewpointF,Max Humidity, Mean Humidity, Min Humidity, Max Sea Level PressureIn, Mean Sea Level PressureIn, Min Sea Level PressureIn, Max VisibilityMiles, Mean VisibilityMiles, Min VisibilityMiles, Max Wind SpeedMPH, Mean Wind SpeedMPH, Max Gust SpeedMPH,PrecipitationIn, CloudCover, Events, WindDirDegrees
2013-7-1,80,76,71,73,71,70,100,90,79,30.11,30.03,29.96,10,6,0,18,9,23,0.23,8,Rain,191
2013-7-2,83,78,72,72,71,70,100,85,69,30.22,30.16,30.11,10,9,4,17,10,24,T,8,Rain,201
2013-7-3,88,80,71,72,70,68,93,76,59,30.24,30.21,30.18,10,10,9,21,10,28,T,4,Rain,222
2013-7-4,90,82,74,74,72,71,93,75,56,30.23,30.19,30.13,10,10,10,17,9,23,0.00,3,,234
2013-7-5,93,84,75,74,71,70,82,66,49,30.19,30.13,30.08,10,10,6,18,10,24,0.00,1,,238
2013-7-6,93,84,75,73,71,70,87,67,46,30.10,30.05,29.99,10,10,9,17,9,22,0.00,2,,265
2013-7-7,95,85,75,74,72,67,87,68,49,30.04,29.99,29.93,10,10,10,20,7,24,0.00,3,,237
2013-7-8,92,81,70,72,69,67,90,69,47,30.05,29.97,29.93,10,10,7,16,8,21,0.00,3,,253
2013-7-9,79,74,68,72,67,64,93,82,71,30.10,30.07,30.04,10,6,1,15,5,17,0.07,7,Rain-Thunderstorm,77
2013-7-10,85,79,73,73,72,71,93,79,65,30.05,29.94,29.83,10,7,3,20,8,24,T,7,Rain,176
2013-7-11,79,75,71,73,71,67,94,85,76,29.93,29.85,29.81,10,8,2,16,6,21,0.43,7,Fog-Rain-Thunderstorm,229
2013-7-12,78,73,67,68,63,58,90,74,58,30.19,30.07,29.91,10,10,10,22,12,26,T,6,,31
2013-7-13,79,73,66,73,69,63,94,87,79,30.31,30.27,30.19,10,7,2,10,5,12,0.07,8,Rain,68
2013-7-14,92,82,72,75,71,67,100,74,47,30.31,30.27,30.20,10,9,2,15,6,18,T,6,,273
2013-7-15,94,85,76,73,71,68,94,69,44,30.21,30.16,30.11,10,10,10,14,6,18,0.00,3,,300
2013-7-16,95,86,76,72,67,64,82,61,39,30.17,30.13,30.10,10,10,10,16,7,21,0.00,2,,341
2013-7-17,89,81,73,72,69,67,93,72,50,30.19,30.13,30.05,10,10,7,16,7,21,0.00,2,Fog,194
2013-7-18,96,87,77,74,71,68,85,65,44,30.03,29.99,29.95,10,10,7,14,7,20,0.00,4,,225
2013-7-19,98,88,77,76,73,71,88,65,42,29.95,29.86,29.78,10,8,6,22,11,30,0.00,3,Fog,224
2013-7-20,95,85,75,76,73,69,87,68,49,29.82,29.74,29.68,10,8,4,23,9,30,0.11,3,Rain-Thunderstorm,236
2013-7-21,83,76,69,69,65,61,90,71,51,29.99,29.93,29.83,10,10,7,10,5,15,0.12,5,Rain,182
2013-7-22,84,77,69,72,68,66,97,78,58,30.00,29.95,29.88,10,10,5,13,5,15,T,6,Rain,134
2013-7-23,88,81,73,75,72,67,100,81,61,29.85,29.66,29.56,10,9,2,21,9,26,0.17,7,Rain,187
2013-7-24,87,79,71,70,66,59,93,72,51,29.92,29.71,29.60,10,10,10,21,7,24,0.00,7,,299
2013-7-25,71,66,60,59,56,49,97,78,58,30.08,30.04,29.94,10,8,1,21,13,25,0.72,8,Rain,17
2013-7-26,73,67,61,65,62,59,100,87,73,30.04,29.98,29.95,10,8,2,21,10,28,0.33,8,Rain,337
2013-7-27,85,74,63,68,64,58,100,70,40,30.07,30.04,30.01,10,9,4,17,8,22,T,5,,213
2013-7-28,84,76,68,69,67,66,97,80,63,30.02,29.99,29.96,10,8,2,15,6,17,0.01,7,Rain,19
2013-7-29,84,77,69,72,70,67,100,83,65,30.05,30.02,29.99,10,8,3,18,8,22,T,6,Rain,176
2013-7-30,83,75,66,65,57,54,84,61,37,30.11,30.08,30.05,10,10,10,15,7,22,0.00,2,,296
2013-7-31,82,71,60,62,59,56,90,69,48,30.14,30.09,30.06,10,10,10,14,5,17,0.00,3,,228